sensor_id;sensor_type;location;lat;lon;timestamp;pressure;altitude;pressure_sealevel;temperature;humidity
7309;BME280;3695;53.330;9.876;2023-05-08T00:01:57;102922.25;;;10.20;100.00
7309;BME280;3695;53.330;9.876;2023-05-08T00:04:23;102916.38;;;10.24;100.00
7309;BME280;3695;53.330;9.876;2023-05-08T00:06:51;102914.13;;;10.20;100.00
7309;BME280;3695;53.330;9.876;2023-05-08T00:09:18;102918.25;;;10.24;100.00
7309;BME280;3695;53.330;9.876;2023-05-08T00:11:44;102914.63;;;10.15;100.00
7309;BME280;3695;53.330;9.876;2023-05-08T00:14:11;102905.44;;;10.08;100.00
7309;BME280;3695;53.330;9.876;2023-05-08T00:16:37;102909.69;;;10.10;100.00
7309;BME280;3695;53.330;9.876;2023-05-08T00:19:04;102905.13;;;10.11;100.00
7309;BME280;3695;53.330;9.876;2023-05-08T00:21:30;102900.72;;;10.10;100.00
7309;BME280;3695;53.330;9.876;2023-05-08T00:23:58;102895.75;;;9.97;100.00
7309;BME280;3695;53.330;9.876;2023-05-08T00:26:25;102887.25;;;9.92;100.00
7309;BME280;3695;53.330;9.876;2023-05-08T00:28:51;102897.38;;;9.90;100.00
7309;BME280;3695;53.330;9.876;2023-05-08T00:31:18;102898.78;;;9.94;100.00
7309;BME280;3695;53.330;9.876;2023-05-08T00:33:44;102904.25;;;10.02;100.00
7309;BME280;3695;53.330;9.876;2023-05-08T00:36:10;102900.16;;;9.98;100.00
7309;BME280;3695;53.330;9.876;2023-05-08T00:38:39;102900.78;;;9.92;100.00
7309;BME280;3695;53.330;9.876;2023-05-08T00:41:07;102900.75;;;9.84;100.00
7309;BME280;3695;53.330;9.876;2023-05-08T00:43:34;102906.59;;;9.97;100.00
7309;BME280;3695;53.330;9.876;2023-05-08T00:46:01;102906.19;;;9.92;100.00
7309;BME280;3695;53.330;9.876;2023-05-08T00:48:30;102911.94;;;9.89;100.00
7309;BME280;3695;53.330;9.876;2023-05-08T00:50:57;102904.50;;;9.91;100.00
7309;BME280;3695;53.330;9.876;2023-05-08T00:53:26;102910.16;;;9.98;100.00
7309;BME280;3695;53.330;9.876;2023-05-08T00:55:52;102905.41;;;9.66;100.00
7309;BME280;3695;53.330;9.876;2023-05-08T00:58:22;102905.28;;;9.75;100.00
7309;BME280;3695;53.330;9.876;2023-05-08T01:00:52;102911.38;;;9.77;100.00
7309;BME280;3695;53.330;9.876;2023-05-08T01:03:21;102912.84;;;9.64;100.00
7309;BME280;3695;53.330;9.876;2023-05-08T01:05:48;102912.72;;;9.73;100.00
7309;BME280;3695;53.330;9.876;2023-05-08T01:08:15;102918.91;;;9.58;100.00
7309;BME280;3695;53.330;9.876;2023-05-08T01:10:44;102911.72;;;9.49;100.00
7309;BME280;3695;53.330;9.876;2023-05-08T01:13:17;102923.63;;;9.56;100.00
7309;BME280;3695;53.330;9.876;2023-05-08T01:15:50;102934.81;;;9.61;100.00
7309;BME280;3695;53.330;9.876;2023-05-08T01:18:25;102928.34;;;9.54;100.00
7309;BME280;3695;53.330;9.876;2023-05-08T01:20:57;102921.78;;;9.38;100.00
7309;BME280;3695;53.330;9.876;2023-05-08T01:23:45;102931.22;;;9.34;100.00
7309;BME280;3695;53.330;9.876;2023-05-08T01:32:18;102927.78;;;9.24;100.00
7309;BME280;3695;53.330;9.876;2023-05-08T01:34:52;102915.25;;;9.23;100.00
7309;BME280;3695;53.330;9.876;2023-05-08T01:37:29;102917.81;;;9.25;100.00
7309;BME280;3695;53.330;9.876;2023-05-08T01:40:03;102919.28;;;9.19;100.00
7309;BME280;3695;53.330;9.876;2023-05-08T01:42:41;102913.81;;;9.11;100.00
7309;BME280;3695;53.330;9.876;2023-05-08T01:45:13;102913.50;;;9.14;100.00
7309;BME280;3695;53.330;9.876;2023-05-08T01:47:49;102919.28;;;9.19;100.00
7309;BME280;3695;53.330;9.876;2023-05-08T01:50:22;102921.06;;;9.10;100.00
7309;BME280;3695;53.330;9.876;2023-05-08T01:52:57;102929.88;;;9.12;100.00
7309;BME280;3695;53.330;9.876;2023-05-08T01:55:30;102929.03;;;9.12;100.00
7309;BME280;3695;53.330;9.876;2023-05-08T01:58:00;102926.72;;;8.81;100.00
7309;BME280;3695;53.330;9.876;2023-05-08T02:00:29;102932.88;;;8.92;100.00
7309;BME280;3695;53.330;9.876;2023-05-08T02:02:58;102924.78;;;8.92;100.00
7309;BME280;3695;53.330;9.876;2023-05-08T02:05:26;102922.31;;;8.80;100.00
7309;BME280;3695;53.330;9.876;2023-05-08T02:07:54;102931.03;;;8.92;100.00
7309;BME280;3695;53.330;9.876;2023-05-08T02:10:21;102925.16;;;8.79;100.00
7309;BME280;3695;53.330;9.876;2023-05-08T02:12:49;102923.63;;;8.76;100.00
7309;BME280;3695;53.330;9.876;2023-05-08T02:15:17;102922.78;;;8.76;100.00
7309;BME280;3695;53.330;9.876;2023-05-08T02:17:47;102916.84;;;8.72;100.00
7309;BME280;3695;53.330;9.876;2023-05-08T02:20:15;102919.53;;;8.72;100.00
7309;BME280;3695;53.330;9.876;2023-05-08T02:22:44;102920.84;;;8.68;100.00
7309;BME280;3695;53.330;9.876;2023-05-08T02:25:14;102914.44;;;8.69;100.00
7309;BME280;3695;53.330;9.876;2023-05-08T02:27:43;102918.84;;;8.70;100.00
7309;BME280;3695;53.330;9.876;2023-05-08T02:30:12;102912.16;;;8.47;100.00
7309;BME280;3695;53.330;9.876;2023-05-08T02:32:40;102914.97;;;8.55;100.00
7309;BME280;3695;53.330;9.876;2023-05-08T02:35:09;102905.56;;;8.59;100.00
7309;BME280;3695;53.330;9.876;2023-05-08T02:37:39;102906.44;;;8.50;100.00
7309;BME280;3695;53.330;9.876;2023-05-08T02:40:09;102906.44;;;8.50;100.00
7309;BME280;3695;53.330;9.876;2023-05-08T02:42:36;102916.94;;;8.35;100.00
7309;BME280;3695;53.330;9.876;2023-05-08T02:45:04;102911.06;;;8.40;100.00
7309;BME280;3695;53.330;9.876;2023-05-08T02:47:38;102914.16;;;8.45;100.00
7309;BME280;3695;53.330;9.876;2023-05-08T02:50:14;102895.75;;;8.31;100.00
7309;BME280;3695;53.330;9.876;2023-05-08T02:52:44;102900.28;;;8.30;100.00
7309;BME280;3695;53.330;9.876;2023-05-08T02:55:19;102900.91;;;8.24;100.00
7309;BME280;3695;53.330;9.876;2023-05-08T02:57:54;102896.50;;;8.23;100.00
7309;BME280;3695;53.330;9.876;2023-05-08T03:00:31;102899.34;;;8.21;100.00
7309;BME280;3695;53.330;9.876;2023-05-08T03:03:00;102895.75;;;8.31;100.00
7309;BME280;3695;53.330;9.876;2023-05-08T03:05:31;102884.66;;;8.34;100.00
7309;BME280;3695;53.330;9.876;2023-05-08T03:08:02;102889.06;;;8.35;100.00
7309;BME280;3695;53.330;9.876;2023-05-08T03:10:33;102881.84;;;8.26;100.00
7309;BME280;3695;53.330;9.876;2023-05-08T03:13:02;102888.47;;;8.13;100.00
7309;BME280;3695;53.330;9.876;2023-05-08T03:15:33;102881.75;;;8.17;100.00
7309;BME280;3695;53.330;9.876;2023-05-08T03:18:02;102893.00;;;8.13;100.00
7309;BME280;3695;53.330;9.876;2023-05-08T03:20:39;102880.50;;;8.12;100.00
7309;BME280;3695;53.330;9.876;2023-05-08T03:23:09;102897.88;;;8.09;100.00
7309;BME280;3695;53.330;9.876;2023-05-08T03:25:39;102891.56;;;8.18;100.00
7309;BME280;3695;53.330;9.876;2023-05-08T03:28:06;102898.16;;;8.06;100.00
7309;BME280;3695;53.330;9.876;2023-05-08T03:30:35;102882.81;;;8.07;100.00
7309;BME280;3695;53.330;9.876;2023-05-08T03:33:03;102883.53;;;7.99;100.00
7309;BME280;3695;53.330;9.876;2023-05-08T03:35:30;102898.41;;;8.13;100.00
7309;BME280;3695;53.330;9.876;2023-05-08T03:37:57;102881.81;;;8.08;100.00
7309;BME280;3695;53.330;9.876;2023-05-08T03:40:26;102885.66;;;8.05;100.00
7309;BME280;3695;53.330;9.876;2023-05-08T03:42:53;102891.09;;;7.96;100.00
7309;BME280;3695;53.330;9.876;2023-05-08T03:45:21;102890.75;;;8.08;100.00
7309;BME280;3695;53.330;9.876;2023-05-08T03:47:50;102892.28;;;7.83;100.00
7309;BME280;3695;53.330;9.876;2023-05-08T03:50:18;102899.69;;;7.81;100.00
7309;BME280;3695;53.330;9.876;2023-05-08T03:52:45;102902.88;;;7.95;100.00
7309;BME280;3695;53.330;9.876;2023-05-08T03:55:11;102909.38;;;8.02;100.00
7309;BME280;3695;53.330;9.876;2023-05-08T03:57:45;102905.84;;;8.01;100.00
7309;BME280;3695;53.330;9.876;2023-05-08T04:00:20;102904.44;;;7.97;100.00
7309;BME280;3695;53.330;9.876;2023-05-08T04:02:55;102895.94;;;7.92;100.00
7309;BME280;3695;53.330;9.876;2023-05-08T04:05:32;102900.75;;;7.98;100.00
7309;BME280;3695;53.330;9.876;2023-05-08T04:08:07;102899.63;;;7.91;100.00
7309;BME280;3695;53.330;9.876;2023-05-08T04:10:41;102904.44;;;7.97;100.00
7309;BME280;3695;53.330;9.876;2023-05-08T04:13:12;102895.94;;;7.92;100.00
7309;BME280;3695;53.330;9.876;2023-05-08T04:15:47;102897.13;;;7.80;100.00
7309;BME280;3695;53.330;9.876;2023-05-08T04:18:17;102890.25;;;7.95;100.00
7309;BME280;3695;53.330;9.876;2023-05-08T04:20:48;102887.38;;;7.97;100.00
7309;BME280;3695;53.330;9.876;2023-05-08T04:23:17;102902.13;;;8.02;100.00
7309;BME280;3695;53.330;9.876;2023-05-08T04:25:46;102883.19;;;7.84;100.00
7309;BME280;3695;53.330;9.876;2023-05-08T04:28:15;102887.63;;;8.03;100.00
7309;BME280;3695;53.330;9.876;2023-05-08T04:30:43;102884.75;;;8.14;100.00
7309;BME280;3695;53.330;9.876;2023-05-08T04:33:10;102881.34;;;8.12;100.00
7309;BME280;3695;53.330;9.876;2023-05-08T04:35:37;102873.41;;;8.11;100.00
7309;BME280;3695;53.330;9.876;2023-05-08T04:38:04;102875.50;;;8.17;100.00
7309;BME280;3695;53.330;9.876;2023-05-08T04:40:30;102880.75;;;8.18;100.00
7309;BME280;3695;53.330;9.876;2023-05-08T04:42:57;102863.63;;;8.00;100.00
7309;BME280;3695;53.330;9.876;2023-05-08T04:45:25;102870.56;;;8.12;100.00
7309;BME280;3695;53.330;9.876;2023-05-08T04:47:51;102866.47;;;8.08;100.00
7309;BME280;3695;53.330;9.876;2023-05-08T04:50:18;102876.44;;;8.26;100.00
7309;BME280;3695;53.330;9.876;2023-05-08T04:52:44;102862.53;;;8.20;100.00
7309;BME280;3695;53.330;9.876;2023-05-08T04:55:10;102860.69;;;8.21;100.00
7309;BME280;3695;53.330;9.876;2023-05-08T04:57:37;102860.53;;;8.23;100.00
7309;BME280;3695;53.330;9.876;2023-05-08T05:00:04;102859.91;;;8.29;100.00
7309;BME280;3695;53.330;9.876;2023-05-08T05:02:32;102868.88;;;8.29;100.00
7309;BME280;3695;53.330;9.876;2023-05-08T05:04:59;102866.88;;;8.31;100.00
7309;BME280;3695;53.330;9.876;2023-05-08T05:07:26;102866.88;;;8.31;100.00
7309;BME280;3695;53.330;9.876;2023-05-08T05:09:52;102875.25;;;8.38;100.00
7309;BME280;3695;53.330;9.876;2023-05-08T05:12:19;102864.97;;;8.41;100.00
7309;BME280;3695;53.330;9.876;2023-05-08T05:14:45;102876.53;;;8.61;100.00
7309;BME280;3695;53.330;9.876;2023-05-08T05:17:12;102866.31;;;8.55;100.00
7309;BME280;3695;53.330;9.876;2023-05-08T05:19:40;102885.25;;;8.73;100.00
7309;BME280;3695;53.330;9.876;2023-05-08T05:22:06;102876.06;;;8.66;100.00
7309;BME280;3695;53.330;9.876;2023-05-08T05:24:33;102879.97;;;8.89;100.00
7309;BME280;3695;53.330;9.876;2023-05-08T05:27:00;102876.34;;;8.80;100.00
7309;BME280;3695;53.330;9.876;2023-05-08T05:29:26;102871.06;;;9.40;100.00
7309;BME280;3695;53.330;9.876;2023-05-08T05:31:54;102852.66;;;9.18;100.00
7309;BME280;3695;53.330;9.876;2023-05-08T05:34:20;102862.34;;;9.29;100.00
7309;BME280;3695;53.330;9.876;2023-05-08T05:36:48;102864.31;;;9.19;100.00
7309;BME280;3695;53.330;9.876;2023-05-08T05:39:15;102869.31;;;9.31;100.00
7309;BME280;3695;53.330;9.876;2023-05-08T05:41:41;102863.09;;;9.13;100.00
7309;BME280;3695;53.330;9.876;2023-05-08T05:44:08;102873.88;;;9.05;100.00
7309;BME280;3695;53.330;9.876;2023-05-08T05:46:35;102880.59;;;9.01;100.00
7309;BME280;3695;53.330;9.876;2023-05-08T05:49:01;102865.13;;;8.93;100.00
7309;BME280;3695;53.330;9.876;2023-05-08T05:51:28;102883.41;;;9.17;100.00
7309;BME280;3695;53.330;9.876;2023-05-08T05:53:56;102869.00;;;9.08;100.00
7309;BME280;3695;53.330;9.876;2023-05-08T05:56:22;102880.06;;;9.23;100.00
7309;BME280;3695;53.330;9.876;2023-05-08T05:58:49;102878.59;;;9.29;100.00
7309;BME280;3695;53.330;9.876;2023-05-08T06:01:16;102872.69;;;9.33;100.00
7309;BME280;3695;53.330;9.876;2023-05-08T06:03:42;102880.72;;;9.43;100.00
7309;BME280;3695;53.330;9.876;2023-05-08T06:06:09;102885.66;;;9.48;100.00
7309;BME280;3695;53.330;9.876;2023-05-08T06:08:35;102884.72;;;9.57;100.00
7309;BME280;3695;53.330;9.876;2023-05-08T06:11:03;102868.47;;;9.57;100.00
7309;BME280;3695;53.330;9.876;2023-05-08T06:13:29;102884.94;;;9.71;100.00
7309;BME280;3695;53.330;9.876;2023-05-08T06:15:56;102879.22;;;9.74;100.00
7309;BME280;3695;53.330;9.876;2023-05-08T06:18:23;102875.00;;;9.80;100.00
7309;BME280;3695;53.330;9.876;2023-05-08T06:20:56;102872.00;;;9.91;100.00
7309;BME280;3695;53.330;9.876;2023-05-08T06:23:22;102877.13;;;9.94;100.00
7309;BME280;3695;53.330;9.876;2023-05-08T06:25:49;102883.69;;;9.92;100.00
7309;BME280;3695;53.330;9.876;2023-05-08T06:28:17;102875.44;;;9.93;100.00
7309;BME280;3695;53.330;9.876;2023-05-08T06:30:44;102878.66;;;9.97;100.00
7309;BME280;3695;53.330;9.876;2023-05-08T06:33:11;102880.19;;;9.99;100.00
7309;BME280;3695;53.330;9.876;2023-05-08T06:35:37;102874.28;;;10.04;100.00
7309;BME280;3695;53.330;9.876;2023-05-08T06:38:03;102867.72;;;10.15;100.00
7309;BME280;3695;53.330;9.876;2023-05-08T06:40:30;102886.41;;;10.26;100.00
7309;BME280;3695;53.330;9.876;2023-05-08T06:42:56;102886.16;;;10.53;100.00
7309;BME280;3695;53.330;9.876;2023-05-08T06:45:24;102850.34;;;10.33;100.00
7309;BME280;3695;53.330;9.876;2023-05-08T06:47:51;102854.38;;;10.29;100.00
7309;BME280;3695;53.330;9.876;2023-05-08T06:50:17;102881.88;;;10.43;100.00
7309;BME280;3695;53.330;9.876;2023-05-08T06:52:44;102864.78;;;10.42;100.00
7309;BME280;3695;53.330;9.876;2023-05-08T06:55:10;102859.53;;;10.49;100.00
7309;BME280;3695;53.330;9.876;2023-05-08T06:57:36;102883.28;;;10.63;100.00
7309;BME280;3695;53.330;9.876;2023-05-08T07:00:04;102877.34;;;10.76;100.00
7309;BME280;3695;53.330;9.876;2023-05-08T07:02:31;102872.59;;;10.86;100.00
7309;BME280;3695;53.330;9.876;2023-05-08T07:04:58;102871.25;;;10.82;100.00
7309;BME280;3695;53.330;9.876;2023-05-08T07:07:24;102888.91;;;11.02;100.00
7309;BME280;3695;53.330;9.876;2023-05-08T07:09:51;102890.25;;;11.22;100.00
7309;BME280;3695;53.330;9.876;2023-05-08T07:12:17;102857.00;;;11.12;100.00
7309;BME280;3695;53.330;9.876;2023-05-08T07:14:44;102859.72;;;11.04;100.00
7309;BME280;3695;53.330;9.876;2023-05-08T07:17:10;102869.53;;;11.21;100.00
7309;BME280;3695;53.330;9.876;2023-05-08T07:19:38;102872.44;;;11.36;100.00
7309;BME280;3695;53.330;9.876;2023-05-08T07:22:05;102855.47;;;11.18;100.00
7309;BME280;3695;53.330;9.876;2023-05-08T07:24:32;102854.97;;;11.14;100.00
7309;BME280;3695;53.330;9.876;2023-05-08T07:26:58;102851.22;;;11.15;100.00
7309;BME280;3695;53.330;9.876;2023-05-08T07:29:25;102856.31;;;11.18;100.00
7309;BME280;3695;53.330;9.876;2023-05-08T07:31:52;102866.47;;;11.32;100.00
7309;BME280;3695;53.330;9.876;2023-05-08T07:34:18;102874.25;;;11.52;100.00
7309;BME280;3695;53.330;9.876;2023-05-08T07:36:46;102869.81;;;11.59;100.00
7309;BME280;3695;53.330;9.876;2023-05-08T07:39:13;102864.84;;;11.71;100.00
7309;BME280;3695;53.330;9.876;2023-05-08T07:41:39;102885.00;;;12.01;100.00
7309;BME280;3695;53.330;9.876;2023-05-08T07:44:06;102871.28;;;12.25;100.00
7309;BME280;3695;53.330;9.876;2023-05-08T07:46:32;102859.94;;;12.13;100.00
7309;BME280;3695;53.330;9.876;2023-05-08T07:48:59;102834.06;;;11.94;100.00
7309;BME280;3695;53.330;9.876;2023-05-08T07:51:25;102842.00;;;12.04;100.00
7309;BME280;3695;53.330;9.876;2023-05-08T07:53:53;102862.56;;;12.29;100.00
7309;BME280;3695;53.330;9.876;2023-05-08T07:56:19;102862.31;;;12.47;100.00
7309;BME280;3695;53.330;9.876;2023-05-08T07:58:47;102851.78;;;12.67;100.00
7309;BME280;3695;53.330;9.876;2023-05-08T08:01:13;102838.81;;;12.54;100.00
7309;BME280;3695;53.330;9.876;2023-05-08T08:03:42;102847.38;;;12.66;100.00
7309;BME280;3695;53.330;9.876;2023-05-08T08:06:08;102863.53;;;12.90;100.00
7309;BME280;3695;53.330;9.876;2023-05-08T08:08:34;102845.97;;;12.93;100.00
7309;BME280;3695;53.330;9.876;2023-05-08T08:11:02;102850.09;;;12.89;100.00
7309;BME280;3695;53.330;9.876;2023-05-08T08:13:29;102822.88;;;12.89;100.00
7309;BME280;3695;53.330;9.876;2023-05-08T08:15:55;102832.56;;;12.69;100.00
7309;BME280;3695;53.330;9.876;2023-05-08T08:18:22;102855.44;;;13.20;100.00
7309;BME280;3695;53.330;9.876;2023-05-08T08:20:48;102845.25;;;13.37;100.00
7309;BME280;3695;53.330;9.876;2023-05-08T08:23:15;102828.81;;;13.45;100.00
7309;BME280;3695;53.330;9.876;2023-05-08T08:25:42;102818.69;;;13.16;100.00
7309;BME280;3695;53.330;9.876;2023-05-08T08:28:10;102820.84;;;13.29;100.00
7309;BME280;3695;53.330;9.876;2023-05-08T08:30:36;102821.69;;;13.29;100.00
7309;BME280;3695;53.330;9.876;2023-05-08T08:33:03;102827.78;;;13.46;100.00
7309;BME280;3695;53.330;9.876;2023-05-08T08:35:31;102818.31;;;13.27;100.00
7309;BME280;3695;53.330;9.876;2023-05-08T08:37:58;102826.38;;;13.50;100.00
7309;BME280;3695;53.330;9.876;2023-05-08T08:40:24;102815.47;;;13.50;100.00
7309;BME280;3695;53.330;9.876;2023-05-08T08:42:51;102801.41;;;13.46;100.00
7309;BME280;3695;53.330;9.876;2023-05-08T08:45:19;102813.78;;;13.64;100.00
7309;BME280;3695;53.330;9.876;2023-05-08T08:47:47;102810.41;;;13.62;100.00
7309;BME280;3695;53.330;9.876;2023-05-08T08:50:13;102783.28;;;13.39;100.00
7309;BME280;3695;53.330;9.876;2023-05-08T08:52:46;102785.91;;;13.32;100.00
7309;BME280;3695;53.330;9.876;2023-05-08T08:55:15;102779.06;;;13.13;100.00
7309;BME280;3695;53.330;9.876;2023-05-08T08:57:46;102785.66;;;13.04;100.00
7309;BME280;3695;53.330;9.876;2023-05-08T09:00:15;102783.38;;;12.93;100.00
7309;BME280;3695;53.330;9.876;2023-05-08T09:02:44;102806.50;;;13.12;100.00
7309;BME280;3695;53.330;9.876;2023-05-08T09:05:11;102814.09;;;13.16;100.00
7309;BME280;3695;53.330;9.876;2023-05-08T09:07:37;102824.97;;;13.25;100.00
7309;BME280;3695;53.330;9.876;2023-05-08T09:10:06;102800.38;;;13.33;100.00
7309;BME280;3695;53.330;9.876;2023-05-08T09:12:39;102818.94;;;13.59;100.00
7309;BME280;3695;53.330;9.876;2023-05-08T09:15:06;102831.25;;;13.84;100.00
7309;BME280;3695;53.330;9.876;2023-05-08T09:17:32;102818.13;;;14.09;100.00
7309;BME280;3695;53.330;9.876;2023-05-08T09:20:00;102813.44;;;14.03;100.00
7309;BME280;3695;53.330;9.876;2023-05-08T09:22:27;102827.94;;;14.39;100.00
7309;BME280;3695;53.330;9.876;2023-05-08T09:24:55;102826.06;;;14.61;100.00
7309;BME280;3695;53.330;9.876;2023-05-08T09:27:22;102818.47;;;14.78;100.00
7309;BME280;3695;53.330;9.876;2023-05-08T09:30:01;102793.06;;;14.56;100.00
7309;BME280;3695;53.330;9.876;2023-05-08T09:32:28;102809.31;;;14.86;100.00
7309;BME280;3695;53.330;9.876;2023-05-08T09:34:55;102790.13;;;14.79;100.00
7309;BME280;3695;53.330;9.876;2023-05-08T09:37:24;102761.69;;;14.45;100.00
7309;BME280;3695;53.330;9.876;2023-05-08T09:39:51;102779.22;;;14.36;100.00
7309;BME280;3695;53.330;9.876;2023-05-08T09:42:18;102784.91;;;14.41;100.00
7309;BME280;3695;53.330;9.876;2023-05-08T09:44:46;102767.66;;;14.34;100.00
7309;BME280;3695;53.330;9.876;2023-05-08T09:47:14;102779.47;;;14.41;100.00
7309;BME280;3695;53.330;9.876;2023-05-08T09:49:55;102788.13;;;14.45;100.00
7309;BME280;3695;53.330;9.876;2023-05-08T09:52:23;102774.41;;;14.38;100.00
7309;BME280;3695;53.330;9.876;2023-05-08T09:54:55;102793.66;;;14.73;100.00
7309;BME280;3695;53.330;9.876;2023-05-08T09:57:22;102793.50;;;15.09;100.00
7309;BME280;3695;53.330;9.876;2023-05-08T09:59:48;102776.81;;;15.25;100.00
7309;BME280;3695;53.330;9.876;2023-05-08T10:02:15;102791.88;;;15.49;100.00
7309;BME280;3695;53.330;9.876;2023-05-08T10:04:44;102741.38;;;15.04;100.00
7309;BME280;3695;53.330;9.876;2023-05-08T10:07:11;102752.75;;;14.79;100.00
7309;BME280;3695;53.330;9.876;2023-05-08T10:09:39;102781.25;;;14.98;100.00
7309;BME280;3695;53.330;9.876;2023-05-08T10:12:22;102791.19;;;15.40;100.00
7309;BME280;3695;53.330;9.876;2023-05-08T10:14:49;102763.44;;;15.37;100.00
7309;BME280;3695;53.330;9.876;2023-05-08T10:17:19;102744.69;;;14.99;100.00
7309;BME280;3695;53.330;9.876;2023-05-08T10:19:58;102747.66;;;15.04;100.00
7309;BME280;3695;53.330;9.876;2023-05-08T10:22:27;102755.63;;;14.99;100.00
7309;BME280;3695;53.330;9.876;2023-05-08T10:24:57;102764.06;;;15.04;100.00
7309;BME280;3695;53.330;9.876;2023-05-08T10:27:30;102765.78;;;15.12;100.00
7309;BME280;3695;53.330;9.876;2023-05-08T10:30:00;102746.75;;;14.91;100.00
7309;BME280;3695;53.330;9.876;2023-05-08T10:32:32;102745.41;;;14.80;100.00
7309;BME280;3695;53.330;9.876;2023-05-08T10:35:02;102758.41;;;14.78;100.00
7309;BME280;3695;53.330;9.876;2023-05-08T10:37:29;102775.75;;;14.92;100.00
7309;BME280;3695;53.330;9.876;2023-05-08T10:39:58;102763.63;;;15.01;100.00
7309;BME280;3695;53.330;9.876;2023-05-08T10:42:25;102763.72;;;15.14;100.00
7309;BME280;3695;53.330;9.876;2023-05-08T10:44:52;102754.38;;;15.36;100.00
7309;BME280;3695;53.330;9.876;2023-05-08T10:47:23;102765.41;;;15.56;100.00
7309;BME280;3695;53.330;9.876;2023-05-08T10:49:59;102744.72;;;15.34;100.00
7309;BME280;3695;53.330;9.876;2023-05-08T10:52:32;102761.47;;;15.59;100.00
7309;BME280;3695;53.330;9.876;2023-05-08T10:55:15;102742.59;;;15.64;100.00
7309;BME280;3695;53.330;9.876;2023-05-08T10:58:04;102730.72;;;15.57;100.00
7309;BME280;3695;53.330;9.876;2023-05-08T11:00:32;102729.81;;;15.36;100.00
7309;BME280;3695;53.330;9.876;2023-05-08T11:03:22;102763.63;;;15.70;100.00
7309;BME280;3695;53.330;9.876;2023-05-08T11:05:51;102758.75;;;16.26;100.00
7309;BME280;3695;53.330;9.876;2023-05-08T11:08:19;102748.22;;;16.36;100.00
7309;BME280;3695;53.330;9.876;2023-05-08T11:10:51;102741.53;;;16.59;100.00
7309;BME280;3695;53.330;9.876;2023-05-08T11:13:27;102745.28;;;16.45;100.00
7309;BME280;3695;53.330;9.876;2023-05-08T11:15:54;102725.53;;;16.56;100.00
7309;BME280;3695;53.330;9.876;2023-05-08T11:18:21;102745.31;;;16.91;100.00
7309;BME280;3695;53.330;9.876;2023-05-08T11:20:56;102732.00;;;17.14;100.00
7309;BME280;3695;53.330;9.876;2023-05-08T11:23:24;102736.88;;;17.06;100.00
7309;BME280;3695;53.330;9.876;2023-05-08T11:25:58;102751.84;;;17.10;100.00
7309;BME280;3695;53.330;9.876;2023-05-08T11:28:25;102745.06;;;17.19;100.00
7309;BME280;3695;53.330;9.876;2023-05-08T11:30:53;102740.28;;;17.72;100.00
7309;BME280;3695;53.330;9.876;2023-05-08T11:33:25;102745.25;;;17.24;100.00
7309;BME280;3695;53.330;9.876;2023-05-08T11:35:55;102745.06;;;17.19;100.00
7309;BME280;3695;53.330;9.876;2023-05-08T11:38:24;102746.19;;;16.78;100.00
7309;BME280;3695;53.330;9.876;2023-05-08T11:40:56;102757.97;;;16.72;100.00
7309;BME280;3695;53.330;9.876;2023-05-08T11:43:48;102749.13;;;16.70;100.00
7309;BME280;3695;53.330;9.876;2023-05-08T11:46:20;102746.16;;;17.05;100.00
7309;BME280;3695;53.330;9.876;2023-05-08T11:48:57;102743.78;;;17.28;100.00
7309;BME280;3695;53.330;9.876;2023-05-08T11:51:23;102746.31;;;17.23;100.00
7309;BME280;3695;53.330;9.876;2023-05-08T11:53:50;102754.09;;;17.26;100.00
7309;BME280;3695;53.330;9.876;2023-05-08T11:56:16;102747.97;;;17.37;100.00
7309;BME280;3695;53.330;9.876;2023-05-08T11:58:43;102751.31;;;17.97;100.00
7309;BME280;3695;53.330;9.876;2023-05-08T12:01:09;102747.44;;;18.11;100.00
7309;BME280;3695;53.330;9.876;2023-05-08T12:03:36;102753.03;;;17.91;100.00
7309;BME280;3695;53.330;9.876;2023-05-08T12:06:05;102756.09;;;18.40;100.00
7309;BME280;3695;53.330;9.876;2023-05-08T12:08:37;102753.56;;;18.13;100.00
7309;BME280;3695;53.330;9.876;2023-05-08T12:11:04;102747.25;;;17.61;100.00
7309;BME280;3695;53.330;9.876;2023-05-08T12:13:30;102753.69;;;18.25;100.00
7309;BME280;3695;53.330;9.876;2023-05-08T12:15:58;102754.03;;;18.04;100.00
7309;BME280;3695;53.330;9.876;2023-05-08T12:18:26;102737.72;;;18.15;100.00
7309;BME280;3695;53.330;9.876;2023-05-08T12:20:56;102738.47;;;17.98;100.00
7309;BME280;3695;53.330;9.876;2023-05-08T12:23:25;102737.72;;;18.47;100.00
7309;BME280;3695;53.330;9.876;2023-05-08T12:25:53;102739.09;;;18.56;100.00
7309;BME280;3695;53.330;9.876;2023-05-08T12:28:20;102740.13;;;18.86;100.00
7309;BME280;3695;53.330;9.876;2023-05-08T12:30:47;102745.75;;;18.73;100.00
7309;BME280;3695;53.330;9.876;2023-05-08T12:33:13;102734.44;;;18.56;100.00
7309;BME280;3695;53.330;9.876;2023-05-08T12:35:41;102734.16;;;18.90;100.00
7309;BME280;3695;53.330;9.876;2023-05-08T12:38:08;102730.09;;;18.99;100.00
7309;BME280;3695;53.330;9.876;2023-05-08T12:40:42;102726.66;;;18.78;100.00
7309;BME280;3695;53.330;9.876;2023-05-08T12:43:09;102720.84;;;18.68;100.00
7309;BME280;3695;53.330;9.876;2023-05-08T12:45:37;102725.31;;;18.87;100.00
7309;BME280;3695;53.330;9.876;2023-05-08T12:48:05;102719.25;;;19.40;100.00
7309;BME280;3695;53.330;9.876;2023-05-08T12:50:34;102720.19;;;19.53;100.00
7309;BME280;3695;53.330;9.876;2023-05-08T12:53:02;102711.47;;;19.56;100.00
7309;BME280;3695;53.330;9.876;2023-05-08T12:55:30;102692.19;;;19.74;100.00
7309;BME280;3695;53.330;9.876;2023-05-08T12:58:00;102701.28;;;20.04;100.00
7309;BME280;3695;53.330;9.876;2023-05-08T13:00:37;102682.94;;;19.68;100.00
7309;BME280;3695;53.330;9.876;2023-05-08T13:03:04;102680.09;;;20.17;100.00
7309;BME280;3695;53.330;9.876;2023-05-08T13:05:32;102672.41;;;20.49;100.00
7309;BME280;3695;53.330;9.876;2023-05-08T13:07:59;102681.47;;;20.37;100.00
7309;BME280;3695;53.330;9.876;2023-05-08T13:10:42;102673.66;;;20.23;100.00
7309;BME280;3695;53.330;9.876;2023-05-08T13:13:10;102662.00;;;20.86;100.00
7309;BME280;3695;53.330;9.876;2023-05-08T13:15:36;102663.50;;;21.05;100.00
7309;BME280;3695;53.330;9.876;2023-05-08T13:18:03;102648.44;;;20.37;100.00
7309;BME280;3695;53.330;9.876;2023-05-08T13:20:31;102656.47;;;20.62;100.00